sensor_id;sensor_type;location;lat;lon;timestamp;P1;durP1;ratioP1;P2;durP2;ratioP2
52978;SDS011;63430;53.186;6.598;2023-04-24T00:01:50;68.80;;;65.72;;
52978;SDS011;63430;53.186;6.598;2023-04-24T00:03:54;65.25;;;62.35;;
52978;SDS011;63430;53.186;6.598;2023-04-24T00:05:56;66.05;;;62.80;;
52978;SDS011;63430;53.186;6.598;2023-04-24T00:08:00;79.15;;;75.32;;
52978;SDS011;63430;53.186;6.598;2023-04-24T00:10:04;67.93;;;64.88;;
52978;SDS011;63430;53.186;6.598;2023-04-24T00:12:07;74.82;;;71.45;;
52978;SDS011;63430;53.186;6.598;2023-04-24T00:14:12;69.93;;;66.78;;
52978;SDS011;63430;53.186;6.598;2023-04-24T00:16:15;64.95;;;62.03;;
52978;SDS011;63430;53.186;6.598;2023-04-24T00:18:18;63.50;;;60.60;;
52978;SDS011;63430;53.186;6.598;2023-04-24T00:20:21;76.38;;;72.95;;
52978;SDS011;63430;53.186;6.598;2023-04-24T00:22:24;59.10;;;56.25;;
52978;SDS011;63430;53.186;6.598;2023-04-24T00:24:26;54.05;;;51.60;;
52978;SDS011;63430;53.186;6.598;2023-04-24T00:26:29;48.65;;;46.03;;
52978;SDS011;63430;53.186;6.598;2023-04-24T00:28:32;57.25;;;54.60;;
52978;SDS011;63430;53.186;6.598;2023-04-24T00:30:37;41.72;;;39.88;;
52978;SDS011;63430;53.186;6.598;2023-04-24T00:32:39;50.47;;;48.10;;
52978;SDS011;63430;53.186;6.598;2023-04-24T00:34:42;55.55;;;53.15;;
52978;SDS011;63430;53.186;6.598;2023-04-24T00:36:44;48.22;;;46.13;;
52978;SDS011;63430;53.186;6.598;2023-04-24T00:38:47;35.58;;;33.97;;
52978;SDS011;63430;53.186;6.598;2023-04-24T00:40:50;37.22;;;35.53;;
52978;SDS011;63430;53.186;6.598;2023-04-24T00:42:52;47.60;;;45.55;;
52978;SDS011;63430;53.186;6.598;2023-04-24T00:44:55;52.53;;;50.20;;
52978;SDS011;63430;53.186;6.598;2023-04-24T00:47:01;43.67;;;41.78;;
52978;SDS011;63430;53.186;6.598;2023-04-24T00:49:04;43.80;;;41.90;;
52978;SDS011;63430;53.186;6.598;2023-04-24T00:51:10;31.08;;;29.70;;
52978;SDS011;63430;53.186;6.598;2023-04-24T00:53:12;50.08;;;47.92;;
52978;SDS011;63430;53.186;6.598;2023-04-24T00:55:15;48.45;;;46.38;;
52978;SDS011;63430;53.186;6.598;2023-04-24T00:57:18;35.70;;;34.15;;
52978;SDS011;63430;53.186;6.598;2023-04-24T00:59:21;44.13;;;42.17;;
52978;SDS011;63430;53.186;6.598;2023-04-24T01:01:23;26.33;;;25.13;;
52978;SDS011;63430;53.186;6.598;2023-04-24T01:03:29;46.33;;;44.03;;
52978;SDS011;63430;53.186;6.598;2023-04-24T01:05:33;39.35;;;37.63;;
52978;SDS011;63430;53.186;6.598;2023-04-24T01:07:36;33.30;;;31.83;;
52978;SDS011;63430;53.186;6.598;2023-04-24T01:09:40;43.20;;;41.35;;
52978;SDS011;63430;53.186;6.598;2023-04-24T01:11:46;44.45;;;42.55;;
52978;SDS011;63430;53.186;6.598;2023-04-24T01:13:49;54.00;;;51.70;;
52978;SDS011;63430;53.186;6.598;2023-04-24T01:15:51;47.70;;;45.67;;
52978;SDS011;63430;53.186;6.598;2023-04-24T01:17:57;45.53;;;43.58;;
52978;SDS011;63430;53.186;6.598;2023-04-24T01:20:03;47.15;;;45.17;;
52978;SDS011;63430;53.186;6.598;2023-04-24T01:22:12;50.00;;;47.70;;
52978;SDS011;63430;53.186;6.598;2023-04-24T01:24:16;45.78;;;43.83;;
52978;SDS011;63430;53.186;6.598;2023-04-24T01:26:20;58.03;;;55.58;;
52978;SDS011;63430;53.186;6.598;2023-04-24T01:28:23;55.47;;;53.13;;
52978;SDS011;63430;53.186;6.598;2023-04-24T01:30:26;44.45;;;42.53;;
52978;SDS011;63430;53.186;6.598;2023-04-24T01:32:31;47.17;;;45.15;;
52978;SDS011;63430;53.186;6.598;2023-04-24T01:34:34;53.22;;;50.97;;
52978;SDS011;63430;53.186;6.598;2023-04-24T01:36:36;49.75;;;47.63;;
52978;SDS011;63430;53.186;6.598;2023-04-24T01:38:43;55.85;;;53.45;;
52978;SDS011;63430;53.186;6.598;2023-04-24T01:40:46;48.03;;;45.92;;
52978;SDS011;63430;53.186;6.598;2023-04-24T01:42:48;45.20;;;43.22;;
52978;SDS011;63430;53.186;6.598;2023-04-24T01:44:51;56.88;;;54.45;;
52978;SDS011;63430;53.186;6.598;2023-04-24T01:46:54;55.72;;;53.22;;
52978;SDS011;63430;53.186;6.598;2023-04-24T01:48:58;45.15;;;43.22;;
52978;SDS011;63430;53.186;6.598;2023-04-24T01:51:02;49.45;;;47.28;;
52978;SDS011;63430;53.186;6.598;2023-04-24T01:53:05;40.97;;;39.15;;
52978;SDS011;63430;53.186;6.598;2023-04-24T01:55:10;40.85;;;39.05;;
52978;SDS011;63430;53.186;6.598;2023-04-24T01:57:13;54.20;;;51.83;;
52978;SDS011;63430;53.186;6.598;2023-04-24T01:59:18;46.65;;;44.60;;
52978;SDS011;63430;53.186;6.598;2023-04-24T02:01:23;54.63;;;52.22;;
52978;SDS011;63430;53.186;6.598;2023-04-24T02:03:26;60.42;;;57.85;;
52978;SDS011;63430;53.186;6.598;2023-04-24T02:05:32;32.83;;;31.38;;
52978;SDS011;63430;53.186;6.598;2023-04-24T02:07:37;46.78;;;44.67;;
52978;SDS011;63430;53.186;6.598;2023-04-24T02:09:40;42.95;;;41.00;;
52978;SDS011;63430;53.186;6.598;2023-04-24T02:11:45;48.85;;;46.65;;
52978;SDS011;63430;53.186;6.598;2023-04-24T02:13:48;43.08;;;41.17;;
52978;SDS011;63430;53.186;6.598;2023-04-24T02:15:52;44.80;;;42.80;;
52978;SDS011;63430;53.186;6.598;2023-04-24T02:17:54;53.22;;;50.88;;
52978;SDS011;63430;53.186;6.598;2023-04-24T02:19:57;47.13;;;45.03;;
52978;SDS011;63430;53.186;6.598;2023-04-24T02:22:00;47.43;;;45.33;;
52978;SDS011;63430;53.186;6.598;2023-04-24T02:26:07;45.38;;;43.33;;
52978;SDS011;63430;53.186;6.598;2023-04-24T02:28:15;45.65;;;43.55;;
52978;SDS011;63430;53.186;6.598;2023-04-24T02:30:17;48.15;;;45.95;;
52978;SDS011;63430;53.186;6.598;2023-04-24T02:32:20;36.05;;;34.35;;
52978;SDS011;63430;53.186;6.598;2023-04-24T02:34:22;73.53;;;70.30;;
52978;SDS011;63430;53.186;6.598;2023-04-24T02:36:25;54.90;;;52.42;;
52978;SDS011;63430;53.186;6.598;2023-04-24T02:38:28;66.07;;;63.00;;
52978;SDS011;63430;53.186;6.598;2023-04-24T02:40:30;64.68;;;61.80;;
52978;SDS011;63430;53.186;6.598;2023-04-24T02:42:34;46.70;;;44.58;;
52978;SDS011;63430;53.186;6.598;2023-04-24T02:44:39;53.55;;;51.13;;
52978;SDS011;63430;53.186;6.598;2023-04-24T02:46:42;50.20;;;47.85;;
52978;SDS011;63430;53.186;6.598;2023-04-24T02:48:46;47.30;;;45.10;;
52978;SDS011;63430;53.186;6.598;2023-04-24T02:50:48;34.22;;;32.63;;
52978;SDS011;63430;53.186;6.598;2023-04-24T02:52:52;47.83;;;45.60;;
52978;SDS011;63430;53.186;6.598;2023-04-24T02:54:54;36.35;;;34.65;;
52978;SDS011;63430;53.186;6.598;2023-04-24T02:56:57;57.92;;;55.28;;
52978;SDS011;63430;53.186;6.598;2023-04-24T02:59:00;58.90;;;56.20;;
52978;SDS011;63430;53.186;6.598;2023-04-24T03:01:07;49.25;;;46.92;;
52978;SDS011;63430;53.186;6.598;2023-04-24T03:03:11;62.05;;;59.15;;
52978;SDS011;63430;53.186;6.598;2023-04-24T03:05:14;71.30;;;67.97;;
52978;SDS011;63430;53.186;6.598;2023-04-24T03:07:17;59.25;;;56.47;;
52978;SDS011;63430;53.186;6.598;2023-04-24T03:09:25;53.65;;;51.20;;
52978;SDS011;63430;53.186;6.598;2023-04-24T03:11:28;50.63;;;48.22;;
52978;SDS011;63430;53.186;6.598;2023-04-24T03:13:31;61.10;;;58.30;;
52978;SDS011;63430;53.186;6.598;2023-04-24T03:15:34;42.70;;;40.67;;
52978;SDS011;63430;53.186;6.598;2023-04-24T03:17:39;48.83;;;46.53;;
52978;SDS011;63430;53.186;6.598;2023-04-24T03:19:42;47.75;;;45.40;;
52978;SDS011;63430;53.186;6.598;2023-04-24T03:21:52;53.40;;;50.90;;
52978;SDS011;63430;53.186;6.598;2023-04-24T03:23:55;55.27;;;52.60;;
52978;SDS011;63430;53.186;6.598;2023-04-24T03:25:58;58.45;;;55.65;;
52978;SDS011;63430;53.186;6.598;2023-04-24T03:28:01;43.70;;;41.55;;
52978;SDS011;63430;53.186;6.598;2023-04-24T03:32:23;46.47;;;44.15;;
52978;SDS011;63430;53.186;6.598;2023-04-24T03:34:29;37.88;;;35.83;;
52978;SDS011;63430;53.186;6.598;2023-04-24T03:36:32;41.25;;;39.15;;
52978;SDS011;63430;53.186;6.598;2023-04-24T03:38:35;50.47;;;47.92;;
52978;SDS011;63430;53.186;6.598;2023-04-24T03:41:03;50.90;;;48.20;;
52978;SDS011;63430;53.186;6.598;2023-04-24T03:43:16;47.40;;;44.90;;
52978;SDS011;63430;53.186;6.598;2023-04-24T03:45:20;44.58;;;42.22;;
52978;SDS011;63430;53.186;6.598;2023-04-24T03:47:25;49.20;;;46.60;;
52978;SDS011;63430;53.186;6.598;2023-04-24T03:49:33;34.08;;;32.03;;
52978;SDS011;63430;53.186;6.598;2023-04-24T03:51:36;44.03;;;41.63;;
52978;SDS011;63430;53.186;6.598;2023-04-24T03:53:50;64.93;;;61.65;;
52978;SDS011;63430;53.186;6.598;2023-04-24T03:55:55;46.83;;;44.33;;
52978;SDS011;63430;53.186;6.598;2023-04-24T03:57:58;59.42;;;56.35;;
52978;SDS011;63430;53.186;6.598;2023-04-24T04:00:01;59.33;;;56.33;;
52978;SDS011;63430;53.186;6.598;2023-04-24T04:02:15;39.10;;;37.03;;
52978;SDS011;63430;53.186;6.598;2023-04-24T04:04:19;40.35;;;38.15;;
52978;SDS011;63430;53.186;6.598;2023-04-24T04:06:25;45.92;;;43.53;;
52978;SDS011;63430;53.186;6.598;2023-04-24T04:08:30;42.33;;;40.10;;
52978;SDS011;63430;53.186;6.598;2023-04-24T04:10:33;34.70;;;32.85;;
52978;SDS011;63430;53.186;6.598;2023-04-24T04:12:38;51.67;;;49.10;;
52978;SDS011;63430;53.186;6.598;2023-04-24T04:14:41;28.17;;;26.50;;
52978;SDS011;63430;53.186;6.598;2023-04-24T04:16:44;56.63;;;53.90;;
52978;SDS011;63430;53.186;6.598;2023-04-24T04:18:47;44.03;;;41.67;;
52978;SDS011;63430;53.186;6.598;2023-04-24T04:20:50;54.53;;;51.72;;
52978;SDS011;63430;53.186;6.598;2023-04-24T04:22:55;40.50;;;38.38;;
52978;SDS011;63430;53.186;6.598;2023-04-24T04:25:12;39.28;;;37.05;;
52978;SDS011;63430;53.186;6.598;2023-04-24T04:29:31;26.13;;;24.48;;
52978;SDS011;63430;53.186;6.598;2023-04-24T04:31:35;41.17;;;39.00;;
52978;SDS011;63430;53.186;6.598;2023-04-24T04:33:42;40.75;;;38.70;;
52978;SDS011;63430;53.186;6.598;2023-04-24T04:35:46;44.95;;;42.65;;
52978;SDS011;63430;53.186;6.598;2023-04-24T04:37:58;46.67;;;44.40;;
52978;SDS011;63430;53.186;6.598;2023-04-24T04:40:23;49.20;;;46.85;;
52978;SDS011;63430;53.186;6.598;2023-04-24T04:42:32;53.45;;;50.72;;
52978;SDS011;63430;53.186;6.598;2023-04-24T04:44:36;55.90;;;53.20;;
52978;SDS011;63430;53.186;6.598;2023-04-24T04:46:42;54.60;;;51.75;;
52978;SDS011;63430;53.186;6.598;2023-04-24T04:48:58;44.60;;;42.40;;
52978;SDS011;63430;53.186;6.598;2023-04-24T04:51:01;49.80;;;47.20;;
52978;SDS011;63430;53.186;6.598;2023-04-24T04:53:06;32.15;;;30.50;;
52978;SDS011;63430;53.186;6.598;2023-04-24T04:55:12;38.70;;;36.80;;
52978;SDS011;63430;53.186;6.598;2023-04-24T04:57:38;46.58;;;44.30;;
52978;SDS011;63430;53.186;6.598;2023-04-24T04:59:43;41.65;;;39.75;;
52978;SDS011;63430;53.186;6.598;2023-04-24T05:01:54;43.00;;;40.90;;
52978;SDS011;63430;53.186;6.598;2023-04-24T05:03:59;41.30;;;39.33;;
52978;SDS011;63430;53.186;6.598;2023-04-24T05:06:02;49.42;;;47.13;;
52978;SDS011;63430;53.186;6.598;2023-04-24T05:08:10;28.67;;;27.17;;
52978;SDS011;63430;53.186;6.598;2023-04-24T05:10:27;45.38;;;43.05;;
52978;SDS011;63430;53.186;6.598;2023-04-24T05:12:30;39.23;;;37.17;;
52978;SDS011;63430;53.186;6.598;2023-04-24T05:14:35;44.95;;;42.63;;
52978;SDS011;63430;53.186;6.598;2023-04-24T05:16:38;35.90;;;34.17;;
52978;SDS011;63430;53.186;6.598;2023-04-24T05:18:43;33.92;;;32.20;;
52978;SDS011;63430;53.186;6.598;2023-04-24T05:20:51;17.95;;;16.95;;
52978;SDS011;63430;53.186;6.598;2023-04-24T05:22:56;37.88;;;36.08;;
52978;SDS011;63430;53.186;6.598;2023-04-24T05:25:03;44.97;;;42.92;;
52978;SDS011;63430;53.186;6.598;2023-04-24T05:27:22;59.13;;;56.47;;
52978;SDS011;63430;53.186;6.598;2023-04-24T05:29:24;138.32;;;131.32;;
52978;SDS011;63430;53.186;6.598;2023-04-24T05:31:28;54.40;;;51.92;;
52978;SDS011;63430;53.186;6.598;2023-04-24T05:33:31;57.45;;;54.90;;
52978;SDS011;63430;53.186;6.598;2023-04-24T05:35:33;54.60;;;52.15;;
52978;SDS011;63430;53.186;6.598;2023-04-24T05:37:36;62.05;;;58.90;;
52978;SDS011;63430;53.186;6.598;2023-04-24T05:39:40;49.45;;;47.15;;
52978;SDS011;63430;53.186;6.598;2023-04-24T05:41:46;43.95;;;41.85;;
52978;SDS011;63430;53.186;6.598;2023-04-24T05:43:49;35.60;;;33.83;;
52978;SDS011;63430;53.186;6.598;2023-04-24T05:45:51;42.33;;;40.30;;
52978;SDS011;63430;53.186;6.598;2023-04-24T05:47:57;37.13;;;35.30;;
52978;SDS011;63430;53.186;6.598;2023-04-24T05:49:59;44.35;;;42.10;;
52978;SDS011;63430;53.186;6.598;2023-04-24T05:52:03;47.42;;;45.22;;
52978;SDS011;63430;53.186;6.598;2023-04-24T05:54:07;33.40;;;31.73;;
52978;SDS011;63430;53.186;6.598;2023-04-24T05:56:10;40.00;;;38.10;;
52978;SDS011;63430;53.186;6.598;2023-04-24T05:58:17;36.83;;;35.03;;
52978;SDS011;63430;53.186;6.598;2023-04-24T06:00:21;32.60;;;31.10;;
52978;SDS011;63430;53.186;6.598;2023-04-24T06:02:33;42.63;;;40.67;;
52978;SDS011;63430;53.186;6.598;2023-04-24T06:04:36;16.60;;;15.70;;
52978;SDS011;63430;53.186;6.598;2023-04-24T06:06:39;35.35;;;33.70;;
52978;SDS011;63430;53.186;6.598;2023-04-24T06:08:42;28.83;;;27.45;;
52978;SDS011;63430;53.186;6.598;2023-04-24T06:12:50;21.92;;;20.83;;
52978;SDS011;63430;53.186;6.598;2023-04-24T06:14:56;18.10;;;17.13;;
52978;SDS011;63430;53.186;6.598;2023-04-24T06:17:23;24.67;;;23.38;;
52978;SDS011;63430;53.186;6.598;2023-04-24T06:19:26;31.95;;;30.35;;
52978;SDS011;63430;53.186;6.598;2023-04-24T06:21:29;21.83;;;20.63;;
52978;SDS011;63430;53.186;6.598;2023-04-24T06:23:31;24.60;;;23.00;;
52978;SDS011;63430;53.186;6.598;2023-04-24T06:25:34;28.70;;;27.27;;
52978;SDS011;63430;53.186;6.598;2023-04-24T06:27:38;29.37;;;27.87;;
52978;SDS011;63430;53.186;6.598;2023-04-24T06:29:43;40.80;;;38.47;;
52978;SDS011;63430;53.186;6.598;2023-04-24T06:31:49;21.33;;;20.17;;
52978;SDS011;63430;53.186;6.598;2023-04-24T06:33:51;38.42;;;36.50;;
52978;SDS011;63430;53.186;6.598;2023-04-24T06:35:54;35.97;;;34.08;;
52978;SDS011;63430;53.186;6.598;2023-04-24T06:37:57;30.88;;;29.30;;
52978;SDS011;63430;53.186;6.598;2023-04-24T06:40:02;36.00;;;33.95;;
52978;SDS011;63430;53.186;6.598;2023-04-24T06:42:09;35.70;;;33.80;;
52978;SDS011;63430;53.186;6.598;2023-04-24T06:44:11;41.47;;;39.30;;
52978;SDS011;63430;53.186;6.598;2023-04-24T06:46:16;22.90;;;21.60;;
52978;SDS011;63430;53.186;6.598;2023-04-24T06:48:21;29.30;;;27.73;;
52978;SDS011;63430;53.186;6.598;2023-04-24T06:50:24;32.90;;;31.10;;
52978;SDS011;63430;53.186;6.598;2023-04-24T06:52:26;36.28;;;34.38;;
52978;SDS011;63430;53.186;6.598;2023-04-24T06:54:29;24.73;;;22.65;;
52978;SDS011;63430;53.186;6.598;2023-04-24T06:56:32;38.13;;;36.08;;
52978;SDS011;63430;53.186;6.598;2023-04-24T06:58:36;34.43;;;32.73;;
52978;SDS011;63430;53.186;6.598;2023-04-24T07:00:38;25.33;;;23.83;;
52978;SDS011;63430;53.186;6.598;2023-04-24T07:02:41;29.60;;;28.00;;
52978;SDS011;63430;53.186;6.598;2023-04-24T07:04:46;29.90;;;28.13;;
52978;SDS011;63430;53.186;6.598;2023-04-24T07:06:49;39.85;;;37.75;;
52978;SDS011;63430;53.186;6.598;2023-04-24T07:08:53;46.67;;;44.15;;
52978;SDS011;63430;53.186;6.598;2023-04-24T07:10:56;24.38;;;23.13;;
52978;SDS011;63430;53.186;6.598;2023-04-24T07:12:58;15.48;;;14.48;;
52978;SDS011;63430;53.186;6.598;2023-04-24T07:15:01;20.70;;;19.67;;
52978;SDS011;63430;53.186;6.598;2023-04-24T07:17:03;24.30;;;23.00;;
52978;SDS011;63430;53.186;6.598;2023-04-24T07:19:07;40.05;;;38.17;;
52978;SDS011;63430;53.186;6.598;2023-04-24T07:21:12;29.20;;;27.77;;
52978;SDS011;63430;53.186;6.598;2023-04-24T07:23:15;22.98;;;21.88;;
52978;SDS011;63430;53.186;6.598;2023-04-24T07:25:17;27.48;;;26.25;;
52978;SDS011;63430;53.186;6.598;2023-04-24T07:27:20;17.45;;;16.52;;
52978;SDS011;63430;53.186;6.598;2023-04-24T07:31:27;16.13;;;14.98;;
52978;SDS011;63430;53.186;6.598;2023-04-24T07:33:30;16.48;;;15.38;;
52978;SDS011;63430;53.186;6.598;2023-04-24T07:35:33;28.52;;;27.13;;
52978;SDS011;63430;53.186;6.598;2023-04-24T07:37:39;25.20;;;23.80;;
52978;SDS011;63430;53.186;6.598;2023-04-24T07:39:47;23.02;;;21.90;;
52978;SDS011;63430;53.186;6.598;2023-04-24T07:41:51;31.42;;;29.70;;
52978;SDS011;63430;53.186;6.598;2023-04-24T07:43:54;21.20;;;20.15;;
52978;SDS011;63430;53.186;6.598;2023-04-24T07:45:57;26.33;;;25.00;;
52978;SDS011;63430;53.186;6.598;2023-04-24T07:50:06;13.98;;;12.77;;
52978;SDS011;63430;53.186;6.598;2023-04-24T07:52:09;16.70;;;15.77;;
52978;SDS011;63430;53.186;6.598;2023-04-24T07:54:14;18.65;;;17.48;;
52978;SDS011;63430;53.186;6.598;2023-04-24T07:56:17;20.77;;;19.80;;
52978;SDS011;63430;53.186;6.598;2023-04-24T07:58:20;15.48;;;14.30;;
52978;SDS011;63430;53.186;6.598;2023-04-24T08:00:23;14.85;;;13.95;;
52978;SDS011;63430;53.186;6.598;2023-04-24T08:02:25;16.00;;;15.07;;
52978;SDS011;63430;53.186;6.598;2023-04-24T08:04:31;23.02;;;21.83;;
52978;SDS011;63430;53.186;6.598;2023-04-24T08:06:34;16.75;;;15.82;;
52978;SDS011;63430;53.186;6.598;2023-04-24T08:08:37;25.65;;;24.13;;
52978;SDS011;63430;53.186;6.598;2023-04-24T08:10:42;17.67;;;16.38;;
52978;SDS011;63430;53.186;6.598;2023-04-24T08:12:46;16.20;;;14.98;;
52978;SDS011;63430;53.186;6.598;2023-04-24T08:14:49;16.75;;;15.15;;
52978;SDS011;63430;53.186;6.598;2023-04-24T08:16:53;18.13;;;16.63;;
52978;SDS011;63430;53.186;6.598;2023-04-24T08:18:57;23.20;;;21.08;;
52978;SDS011;63430;53.186;6.598;2023-04-24T08:21:00;25.52;;;23.60;;
52978;SDS011;63430;53.186;6.598;2023-04-24T08:23:03;17.65;;;16.42;;
52978;SDS011;63430;53.186;6.598;2023-04-24T08:25:06;31.08;;;29.05;;
52978;SDS011;63430;53.186;6.598;2023-04-24T08:27:12;16.35;;;15.05;;
52978;SDS011;63430;53.186;6.598;2023-04-24T08:29:14;25.83;;;23.48;;
52978;SDS011;63430;53.186;6.598;2023-04-24T08:31:18;17.40;;;16.03;;
52978;SDS011;63430;53.186;6.598;2023-04-24T08:33:22;26.67;;;24.38;;
52978;SDS011;63430;53.186;6.598;2023-04-24T08:35:25;37.70;;;34.72;;
52978;SDS011;63430;53.186;6.598;2023-04-24T08:37:28;21.05;;;18.95;;
52978;SDS011;63430;53.186;6.598;2023-04-24T08:39:31;36.30;;;33.70;;
52978;SDS011;63430;53.186;6.598;2023-04-24T08:41:33;23.95;;;22.05;;
52978;SDS011;63430;53.186;6.598;2023-04-24T08:43:40;27.65;;;24.80;;
52978;SDS011;63430;53.186;6.598;2023-04-24T08:45:43;16.40;;;14.82;;
52978;SDS011;63430;53.186;6.598;2023-04-24T08:47:46;35.45;;;32.95;;
52978;SDS011;63430;53.186;6.598;2023-04-24T08:49:49;19.85;;;18.15;;
52978;SDS011;63430;53.186;6.598;2023-04-24T08:51:54;19.73;;;15.13;;
52978;SDS011;63430;53.186;6.598;2023-04-24T08:53:57;33.30;;;30.77;;
52978;SDS011;63430;53.186;6.598;2023-04-24T08:56:00;26.13;;;23.88;;
52978;SDS011;63430;53.186;6.598;2023-04-24T08:58:04;23.80;;;21.70;;
52978;SDS011;63430;53.186;6.598;2023-04-24T09:00:10;18.45;;;16.52;;
52978;SDS011;63430;53.186;6.598;2023-04-24T09:02:16;42.92;;;39.97;;
52978;SDS011;63430;53.186;6.598;2023-04-24T09:04:19;20.42;;;18.48;;
52978;SDS011;63430;53.186;6.598;2023-04-24T09:06:24;21.02;;;15.93;;
52978;SDS011;63430;53.186;6.598;2023-04-24T09:08:28;19.55;;;18.00;;
52978;SDS011;63430;53.186;6.598;2023-04-24T09:10:31;15.57;;;14.10;;
52978;SDS011;63430;53.186;6.598;2023-04-24T09:12:39;20.98;;;18.75;;
52978;SDS011;63430;53.186;6.598;2023-04-24T09:14:43;15.45;;;13.95;;
52978;SDS011;63430;53.186;6.598;2023-04-24T09:16:50;13.57;;;12.23;;
52978;SDS011;63430;53.186;6.598;2023-04-24T09:18:53;16.30;;;14.70;;
52978;SDS011;63430;53.186;6.598;2023-04-24T09:20:57;14.02;;;12.68;;
52978;SDS011;63430;53.186;6.598;2023-04-24T09:23:00;17.27;;;11.35;;
52978;SDS011;63430;53.186;6.598;2023-04-24T09:25:06;16.48;;;12.80;;
52978;SDS011;63430;53.186;6.598;2023-04-24T09:27:10;15.73;;;13.85;;
52978;SDS011;63430;53.186;6.598;2023-04-24T09:29:18;16.92;;;15.40;;
52978;SDS011;63430;53.186;6.598;2023-04-24T09:31:26;12.55;;;11.40;;
52978;SDS011;63430;53.186;6.598;2023-04-24T09:33:32;13.90;;;12.52;;
52978;SDS011;63430;53.186;6.598;2023-04-24T09:35:35;11.98;;;10.52;;
52978;SDS011;63430;53.186;6.598;2023-04-24T09:37:39;19.05;;;15.88;;
52978;SDS011;63430;53.186;6.598;2023-04-24T09:39:43;13.48;;;12.23;;
52978;SDS011;63430;53.186;6.598;2023-04-24T09:41:46;11.43;;;10.48;;
52978;SDS011;63430;53.186;6.598;2023-04-24T09:43:50;11.38;;;10.15;;
52978;SDS011;63430;53.186;6.598;2023-04-24T09:45:55;14.02;;;10.35;;
52978;SDS011;63430;53.186;6.598;2023-04-24T09:47:59;11.90;;;9.35;;
52978;SDS011;63430;53.186;6.598;2023-04-24T09:50:11;15.20;;;13.80;;
52978;SDS011;63430;53.186;6.598;2023-04-24T09:52:17;15.15;;;11.77;;
52978;SDS011;63430;53.186;6.598;2023-04-24T09:54:20;42.00;;;38.65;;
52978;SDS011;63430;53.186;6.598;2023-04-24T09:56:24;10.80;;;9.82;;
52978;SDS011;63430;53.186;6.598;2023-04-24T09:58:28;11.40;;;10.13;;
52978;SDS011;63430;53.186;6.598;2023-04-24T10:00:32;32.20;;;29.90;;
52978;SDS011;63430;53.186;6.598;2023-04-24T10:02:35;19.90;;;10.55;;
52978;SDS011;63430;53.186;6.598;2023-04-24T10:04:38;11.75;;;10.57;;
52978;SDS011;63430;53.186;6.598;2023-04-24T10:06:44;11.65;;;10.70;;
52978;SDS011;63430;53.186;6.598;2023-04-24T10:08:49;11.20;;;10.30;;
52978;SDS011;63430;53.186;6.598;2023-04-24T10:10:52;10.07;;;9.07;;
52978;SDS011;63430;53.186;6.598;2023-04-24T10:12:55;9.88;;;9.02;;
52978;SDS011;63430;53.186;6.598;2023-04-24T10:14:58;24.65;;;22.88;;
52978;SDS011;63430;53.186;6.598;2023-04-24T10:17:03;9.75;;;8.95;;
52978;SDS011;63430;53.186;6.598;2023-04-24T10:19:07;15.02;;;13.73;;
52978;SDS011;63430;53.186;6.598;2023-04-24T10:21:10;9.48;;;8.65;;
52978;SDS011;63430;53.186;6.598;2023-04-24T10:23:16;8.40;;;6.10;;
52978;SDS011;63430;53.186;6.598;2023-04-24T10:25:21;18.02;;;16.70;;
52978;SDS011;63430;53.186;6.598;2023-04-24T10:27:25;7.85;;;7.15;;
52978;SDS011;63430;53.186;6.598;2023-04-24T10:29:28;7.35;;;6.85;;
52978;SDS011;63430;53.186;6.598;2023-04-24T10:31:38;9.32;;;7.40;;
52978;SDS011;63430;53.186;6.598;2023-04-24T10:33:42;7.80;;;6.68;;
52978;SDS011;63430;53.186;6.598;2023-04-24T10:35:46;7.70;;;6.72;;
52978;SDS011;63430;53.186;6.598;2023-04-24T10:37:54;10.07;;;6.85;;
52978;SDS011;63430;53.186;6.598;2023-04-24T10:40:02;13.05;;;12.13;;
52978;SDS011;63430;53.186;6.598;2023-04-24T10:42:13;20.65;;;19.20;;
52978;SDS011;63430;53.186;6.598;2023-04-24T10:44:17;7.57;;;6.93;;
52978;SDS011;63430;53.186;6.598;2023-04-24T10:46:20;8.50;;;7.90;;
52978;SDS011;63430;53.186;6.598;2023-04-24T10:48:26;7.88;;;7.32;;
52978;SDS011;63430;53.186;6.598;2023-04-24T10:50:42;12.82;;;7.65;;
52978;SDS011;63430;53.186;6.598;2023-04-24T10:52:46;7.93;;;7.13;;
52978;SDS011;63430;53.186;6.598;2023-04-24T10:54:51;28.88;;;27.08;;
52978;SDS011;63430;53.186;6.598;2023-04-24T10:59:37;17.27;;;15.60;;
52978;SDS011;63430;53.186;6.598;2023-04-24T11:01:39;8.10;;;7.45;;
52978;SDS011;63430;53.186;6.598;2023-04-24T11:03:41;7.95;;;7.35;;
52978;SDS011;63430;53.186;6.598;2023-04-24T11:05:59;11.25;;;10.38;;
52978;SDS011;63430;53.186;6.598;2023-04-24T11:08:12;10.10;;;9.02;;
52978;SDS011;63430;53.186;6.598;2023-04-24T11:10:24;8.55;;;7.85;;
52978;SDS011;63430;53.186;6.598;2023-04-24T11:12:29;8.65;;;7.65;;
52978;SDS011;63430;53.186;6.598;2023-04-24T11:17:26;7.80;;;7.20;;
52978;SDS011;63430;53.186;6.598;2023-04-24T11:19:30;7.55;;;7.03;;
52978;SDS011;63430;53.186;6.598;2023-04-24T11:21:39;9.40;;;7.40;;
52978;SDS011;63430;53.186;6.598;2023-04-24T11:23:43;7.32;;;6.82;;
52978;SDS011;63430;53.186;6.598;2023-04-24T11:25:52;6.78;;;6.18;;
52978;SDS011;63430;53.186;6.598;2023-04-24T11:28:14;8.13;;;7.43;;
52978;SDS011;63430;53.186;6.598;2023-04-24T11:30:20;8.30;;;7.50;;
52978;SDS011;63430;53.186;6.598;2023-04-24T11:32:24;8.15;;;7.45;;
52978;SDS011;63430;53.186;6.598;2023-04-24T11:34:28;18.35;;;17.08;;
52978;SDS011;63430;53.186;6.598;2023-04-24T11:36:31;8.20;;;7.60;;
52978;SDS011;63430;53.186;6.598;2023-04-24T11:38:34;8.05;;;7.38;;
52978;SDS011;63430;53.186;6.598;2023-04-24T11:40:36;8.82;;;8.13;;
52978;SDS011;63430;53.186;6.598;2023-04-24T11:42:41;11.70;;;7.35;;
52978;SDS011;63430;53.186;6.598;2023-04-24T11:44:44;11.25;;;7.18;;
52978;SDS011;63430;53.186;6.598;2023-04-24T11:46:52;9.95;;;7.60;;
52978;SDS011;63430;53.186;6.598;2023-04-24T11:49:00;8.05;;;7.35;;
52978;SDS011;63430;53.186;6.598;2023-04-24T11:51:03;9.10;;;8.30;;
52978;SDS011;63430;53.186;6.598;2023-04-24T11:53:05;8.30;;;7.45;;
52978;SDS011;63430;53.186;6.598;2023-04-24T11:55:22;6.72;;;6.30;;
52978;SDS011;63430;53.186;6.598;2023-04-24T11:57:27;7.22;;;6.55;;
52978;SDS011;63430;53.186;6.598;2023-04-24T11:59:35;6.63;;;6.07;;
52978;SDS011;63430;53.186;6.598;2023-04-24T12:01:44;25.75;;;24.20;;
52978;SDS011;63430;53.186;6.598;2023-04-24T12:03:51;7.70;;;5.68;;
52978;SDS011;63430;53.186;6.598;2023-04-24T12:06:05;9.38;;;7.82;;
52978;SDS011;63430;53.186;6.598;2023-04-24T12:08:09;11.07;;;8.02;;
52978;SDS011;63430;53.186;6.598;2023-04-24T12:10:12;8.52;;;7.75;;
52978;SDS011;63430;53.186;6.598;2023-04-24T12:12:15;12.05;;;11.20;;
52978;SDS011;63430;53.186;6.598;2023-04-24T12:16:22;10.40;;;9.80;;
52978;SDS011;63430;53.186;6.598;2023-04-24T12:18:28;7.72;;;7.22;;
52978;SDS011;63430;53.186;6.598;2023-04-24T12:20:33;9.88;;;8.93;;
52978;SDS011;63430;53.186;6.598;2023-04-24T12:22:45;7.50;;;6.70;;
52978;SDS011;63430;53.186;6.598;2023-04-24T12:24:58;6.85;;;6.45;;
52978;SDS011;63430;53.186;6.598;2023-04-24T12:27:02;6.57;;;6.07;;
52978;SDS011;63430;53.186;6.598;2023-04-24T12:29:05;5.57;;;5.07;;
52978;SDS011;63430;53.186;6.598;2023-04-24T12:31:07;6.43;;;5.93;;
52978;SDS011;63430;53.186;6.598;2023-04-24T12:33:11;5.68;;;5.10;;
52978;SDS011;63430;53.186;6.598;2023-04-24T12:35:18;6.00;;;5.53;;